Time;durP1;ratioP1;P1;durP2;ratioP2;P2;SDS_P1;SDS_P2;PMS_P1;PMS_P2;Temp;Humidity;BMP_temperature;BMP_pressure;BME280_temperature;BME280_humidity;BME280_pressure;Samples;Min_cycle;Max_cycle;Signal;HPM_P1;HPM_P2
2024/02/21 00:02:04;;;;;;;16.90;6.18;;;10.70;99.90;;;;;;5078304;28;20123;-68
2024/02/21 00:04:50;;;;;;;13.15;5.32;;;10.70;99.90;;;;;;5083380;28;20044;-68
2024/02/21 00:07:36;;;;;;;12.98;5.25;;;10.80;99.90;;;;;;5074641;28;20041;-68
2024/02/21 00:10:21;;;;;;;10.75;5.65;;;10.80;99.90;;;;;;5071557;28;20041;-68
2024/02/21 00:13:07;;;;;;;12.77;5.70;;;10.70;99.90;;;;;;5074548;28;20491;-68
2024/02/21 00:15:54;;;;;;;13.23;5.68;;;10.70;99.90;;;;;;5070703;28;20036;-68
2024/02/21 00:18:40;;;;;;;13.60;5.13;;;10.70;99.90;;;;;;5083388;28;20045;-68
2024/02/21 00:21:25;;;;;;;12.98;5.40;;;10.70;99.90;;;;;;5080595;28;20123;-68
2024/02/21 00:24:11;;;;;;;15.82;5.78;;;10.70;99.90;;;;;;5087579;28;20059;-68
2024/02/21 00:26:57;;;;;;;15.68;6.30;;;10.80;99.90;;;;;;5061433;28;20037;-68
2024/02/21 00:29:43;;;;;;;14.38;5.47;;;10.70;99.90;;;;;;5083876;28;20400;-67
2024/02/21 00:32:29;;;;;;;10.95;4.65;;;10.80;99.90;;;;;;5077054;28;20072;-68
2024/02/21 00:35:15;;;;;;;15.05;5.05;;;10.70;99.90;;;;;;5074911;28;20051;-68
2024/02/21 00:38:03;;;;;;;15.05;4.80;;;10.80;99.90;;;;;;5081528;28;20056;-68
2024/02/21 00:40:49;;;;;;;12.35;5.28;;;10.80;99.90;;;;;;5082966;28;20040;-67
2024/02/21 00:43:34;;;;;;;13.70;5.68;;;10.80;99.90;;;;;;5075841;28;20064;-67
2024/02/21 00:46:20;;;;;;;12.15;5.32;;;10.80;99.90;;;;;;5083256;28;20043;-67
2024/02/21 00:49:06;;;;;;;10.50;4.70;;;10.80;99.90;;;;;;5074042;28;20113;-67
2024/02/21 00:51:52;;;;;;;11.27;5.00;;;10.80;99.90;;;;;;5090620;28;20071;-67
2024/02/21 00:54:38;;;;;;;12.82;4.95;;;10.80;99.90;;;;;;5060345;28;20059;-67
2024/02/21 00:57:24;;;;;;;14.23;4.93;;;10.80;99.90;;;;;;5078207;28;20059;-67
2024/02/21 01:00:11;;;;;;;11.48;4.53;;;10.70;99.90;;;;;;5076936;28;20547;-67
2024/02/21 01:02:57;;;;;;;12.32;5.53;;;10.80;99.90;;;;;;5072669;28;20049;-67
2024/02/21 01:05:43;;;;;;;10.32;5.32;;;10.80;99.90;;;;;;5071331;28;20041;-67
2024/02/21 01:08:29;;;;;;;11.23;4.30;;;10.80;99.90;;;;;;5075736;28;20043;-67
2024/02/21 01:11:15;;;;;;;11.18;4.72;;;10.80;99.90;;;;;;5074908;28;20032;-67
2024/02/21 01:14:01;;;;;;;12.02;4.95;;;10.80;99.90;;;;;;5082512;28;20103;-67
2024/02/21 01:16:47;;;;;;;8.95;4.70;;;10.80;99.90;;;;;;5071677;28;20086;-67
2024/02/21 01:19:33;;;;;;;10.63;4.80;;;10.80;99.90;;;;;;5085703;28;20060;-67
2024/02/21 01:22:19;;;;;;;10.93;4.57;;;10.80;99.90;;;;;;5075804;28;20131;-67
2024/02/21 01:25:05;;;;;;;13.38;4.72;;;10.80;99.90;;;;;;5083598;28;20047;-67
2024/02/21 01:27:51;;;;;;;9.52;4.38;;;10.80;99.90;;;;;;5075615;28;20041;-67
2024/02/21 01:30:37;;;;;;;13.85;5.38;;;10.80;99.90;;;;;;5075061;28;20044;-67
2024/02/21 01:33:23;;;;;;;12.00;4.65;;;10.80;99.90;;;;;;5078278;28;20041;-67
2024/02/21 01:36:09;;;;;;;12.93;5.35;;;10.80;99.90;;;;;;5078163;28;20051;-67
2024/02/21 01:38:55;;;;;;;12.82;4.50;;;10.80;99.90;;;;;;5084993;28;20135;-67
2024/02/21 01:41:41;;;;;;;9.95;4.38;;;10.80;99.90;;;;;;5070288;28;20040;-67
2024/02/21 01:44:27;;;;;;;13.00;5.15;;;10.80;99.90;;;;;;5072555;28;20045;-67
2024/02/21 01:47:14;;;;;;;9.80;4.53;;;10.80;99.90;;;;;;5069970;28;20076;-67
2024/02/21 01:50:01;;;;;;;11.35;4.82;;;10.80;99.90;;;;;;5076260;28;20045;-67
2024/02/21 01:52:50;;;;;;;15.35;4.88;;;10.80;99.90;;;;;;5074996;28;20446;-67
2024/02/21 01:55:36;;;;;;;12.95;4.65;;;10.90;99.90;;;;;;5077120;28;20040;-67
2024/02/21 01:58:23;;;;;;;16.42;5.25;;;10.80;99.90;;;;;;5057150;28;20410;-67
2024/02/21 02:01:10;;;;;;;7.63;4.10;;;10.80;99.90;;;;;;5067240;28;20408;-67
2024/02/21 02:03:56;;;;;;;11.60;4.50;;;10.80;99.90;;;;;;5071301;28;20127;-67
2024/02/21 02:06:43;;;;;;;10.27;4.43;;;10.90;99.90;;;;;;5075239;28;20045;-67
2024/02/21 02:09:29;;;;;;;9.82;4.25;;;10.90;99.90;;;;;;5075017;28;20047;-67
2024/02/21 02:12:15;;;;;;;12.27;5.25;;;10.80;99.90;;;;;;5078493;28;20028;-67
2024/02/21 02:15:04;;;;;;;9.95;4.72;;;10.90;99.90;;;;;;5074277;28;20036;-67
2024/02/21 02:17:50;;;;;;;12.05;4.90;;;10.90;99.90;;;;;;5069604;28;20423;-68
2024/02/21 02:20:36;;;;;;;13.52;4.80;;;10.90;99.90;;;;;;5067723;28;20036;-67
2024/02/21 02:23:31;;;;;;;12.15;4.40;;;10.90;99.90;;;;;;5074524;28;20044;-67
2024/02/21 02:26:17;;;;;;;13.57;5.03;;;10.90;99.90;;;;;;5074904;28;20138;-67
2024/02/21 02:29:03;;;;;;;12.77;4.93;;;10.90;99.90;;;;;;5082804;28;20480;-67
2024/02/21 02:31:49;;;;;;;8.80;4.30;;;10.90;99.90;;;;;;5083312;28;20043;-67
2024/02/21 02:34:35;;;;;;;11.15;5.70;;;10.90;99.90;;;;;;5075810;28;20040;-68
2024/02/21 02:37:21;;;;;;;10.80;4.50;;;10.90;99.90;;;;;;5076018;28;20087;-69
2024/02/21 02:40:07;;;;;;;17.65;5.20;;;10.80;99.90;;;;;;5081832;28;20122;-68
2024/02/21 02:42:55;;;;;;;16.02;4.97;;;10.80;99.90;;;;;;5083379;28;20048;-68
2024/02/21 02:45:40;;;;;;;12.25;4.90;;;10.80;99.90;;;;;;5079931;28;20115;-68
2024/02/21 02:48:26;;;;;;;10.98;5.00;;;10.80;99.90;;;;;;5082573;28;20502;-68
2024/02/21 02:51:12;;;;;;;11.45;5.57;;;10.80;99.90;;;;;;5076080;28;20615;-68
2024/02/21 02:53:58;;;;;;;11.60;4.55;;;10.80;99.90;;;;;;5071810;28;20481;-68
2024/02/21 02:56:44;;;;;;;10.13;4.45;;;10.80;99.90;;;;;;5076380;28;20028;-68
2024/02/21 02:59:30;;;;;;;13.75;5.78;;;10.80;99.90;;;;;;5085729;28;20036;-68
2024/02/21 03:02:17;;;;;;;10.68;4.57;;;10.80;99.90;;;;;;5074512;28;20048;-68
2024/02/21 03:05:15;;;;;;;11.27;4.93;;;10.70;99.90;;;;;;5081139;28;20037;-68
2024/02/21 03:08:01;;;;;;;8.65;4.63;;;10.70;99.90;;;;;;5079625;28;20036;-68
2024/02/21 03:10:47;;;;;;;10.13;4.75;;;10.70;99.90;;;;;;5077208;28;20102;-68
2024/02/21 03:13:33;;;;;;;9.25;4.55;;;10.70;99.90;;;;;;5085034;28;20040;-68
2024/02/21 03:16:19;;;;;;;11.35;5.40;;;10.70;99.90;;;;;;5082299;28;20482;-68
2024/02/21 03:19:04;;;;;;;11.13;4.47;;;10.60;99.90;;;;;;5077593;28;20048;-68
2024/02/21 03:21:51;;;;;;;14.90;5.18;;;10.60;99.90;;;;;;5078601;28;20045;-68
2024/02/21 03:24:37;;;;;;;11.98;5.13;;;10.60;99.90;;;;;;5075023;28;20040;-68
2024/02/21 03:27:23;;;;;;;12.77;4.38;;;10.60;99.90;;;;;;5076763;28;20044;-69
2024/02/21 03:30:09;;;;;;;11.75;5.13;;;10.60;99.90;;;;;;5084479;28;20115;-68
2024/02/21 03:32:55;;;;;;;14.60;4.80;;;10.60;99.90;;;;;;5077938;28;20067;-68
2024/02/21 03:35:41;;;;;;;10.05;5.15;;;10.60;99.90;;;;;;5076934;28;20484;-68
2024/02/21 03:38:27;;;;;;;15.40;6.57;;;10.60;99.90;;;;;;5084466;28;20067;-68
2024/02/21 03:41:13;;;;;;;8.35;4.97;;;10.60;99.90;;;;;;5076905;28;20078;-69
2024/02/21 03:43:59;;;;;;;13.07;5.00;;;10.50;99.90;;;;;;5079531;28;20492;-68
2024/02/21 03:46:45;;;;;;;12.45;5.40;;;10.50;99.90;;;;;;5080977;28;20091;-68
2024/02/21 03:49:30;;;;;;;12.05;5.47;;;10.50;99.90;;;;;;5080327;28;20036;-68
2024/02/21 03:52:16;;;;;;;13.43;5.03;;;10.50;99.90;;;;;;5077210;28;20044;-68
2024/02/21 03:55:02;;;;;;;14.27;5.60;;;10.50;99.90;;;;;;5080978;28;20040;-68
2024/02/21 03:57:50;;;;;;;9.45;4.95;;;10.50;99.90;;;;;;5078311;28;20056;-68
2024/02/21 04:00:35;;;;;;;11.55;5.05;;;10.50;99.90;;;;;;5070685;28;20044;-68
2024/02/21 04:03:21;;;;;;;7.97;4.75;;;10.40;99.90;;;;;;5074461;28;20476;-68
2024/02/21 04:06:08;;;;;;;8.93;4.82;;;10.40;99.90;;;;;;5072649;28;20047;-68
2024/02/21 04:08:54;;;;;;;10.15;5.15;;;10.40;99.90;;;;;;5077097;28;20041;-68
2024/02/21 04:11:39;;;;;;;8.85;5.07;;;10.40;99.90;;;;;;5077601;28;20032;-68
2024/02/21 04:14:25;;;;;;;12.30;5.28;;;10.40;99.90;;;;;;5082962;28;20499;-68
2024/02/21 04:17:11;;;;;;;10.25;4.82;;;10.40;99.90;;;;;;5077785;28;20389;-68
2024/02/21 04:20:08;;;;;;;12.50;5.28;;;10.40;99.90;;;;;;5078530;28;20052;-69
2024/02/21 04:22:54;;;;;;;10.15;4.97;;;10.40;99.90;;;;;;5080421;28;20048;-68
2024/02/21 04:25:40;;;;;;;10.82;5.88;;;10.40;99.90;;;;;;5073439;28;20074;-68
2024/02/21 04:28:26;;;;;;;11.02;5.15;;;10.40;99.90;;;;;;5085350;28;20072;-68
2024/02/21 04:31:12;;;;;;;8.20;4.82;;;10.30;99.90;;;;;;5071110;28;20139;-68
2024/02/21 04:33:57;;;;;;;15.85;6.03;;;10.30;99.90;;;;;;5077294;28;20040;-68
2024/02/21 04:36:43;;;;;;;11.93;5.28;;;10.30;99.90;;;;;;5069841;28;20043;-68
2024/02/21 04:39:29;;;;;;;10.98;5.28;;;10.30;99.90;;;;;;5081277;28;20036;-68
2024/02/21 04:42:15;;;;;;;14.65;5.43;;;10.30;99.90;;;;;;5082519;28;20037;-68
2024/02/21 04:45:01;;;;;;;9.00;4.70;;;10.30;99.90;;;;;;5081950;28;20090;-68
2024/02/21 04:47:47;;;;;;;10.15;5.25;;;10.30;99.90;;;;;;5071964;28;20041;-68
2024/02/21 04:50:33;;;;;;;13.27;5.88;;;10.30;99.90;;;;;;5069620;28;20040;-68
2024/02/21 04:53:19;;;;;;;14.35;4.53;;;10.20;99.90;;;;;;5075929;28;20039;-68
2024/02/21 04:56:05;;;;;;;9.85;5.25;;;10.20;99.90;;;;;;5071645;28;20070;-67
2024/02/21 04:58:51;;;;;;;18.52;6.82;;;10.20;99.90;;;;;;5072651;28;20044;-67
2024/02/21 05:01:37;;;;;;;11.80;5.88;;;10.20;99.90;;;;;;5079475;28;20436;-68
2024/02/21 05:04:23;;;;;;;9.88;4.97;;;10.20;99.90;;;;;;5069026;28;20143;-68
2024/02/21 05:07:10;;;;;;;14.93;5.60;;;10.20;99.90;;;;;;5079638;28;20046;-66
2024/02/21 05:09:56;;;;;;;13.32;5.57;;;10.20;99.90;;;;;;5074794;28;20036;-68
2024/02/21 05:12:42;;;;;;;9.55;5.05;;;10.20;99.90;;;;;;5055247;28;20045;-67
2024/02/21 05:15:28;;;;;;;14.23;6.50;;;10.20;99.90;;;;;;5057156;28;20068;-67
2024/02/21 05:18:14;;;;;;;12.52;6.07;;;10.20;99.90;;;;;;5080006;28;20106;-64
2024/02/21 05:21:01;;;;;;;10.68;5.00;;;10.30;99.90;;;;;;5068660;28;20043;-65
2024/02/21 05:23:47;;;;;;;9.60;5.28;;;10.30;99.90;;;;;;5082631;28;20051;-64
2024/02/21 05:26:33;;;;;;;15.65;6.05;;;10.30;99.90;;;;;;5074328;28;20032;-64
2024/02/21 05:29:19;;;;;;;15.15;6.07;;;10.30;99.90;;;;;;5074912;28;20122;-64
2024/02/21 05:32:05;;;;;;;14.02;5.78;;;10.30;99.90;;;;;;5082961;28;20377;-64
2024/02/21 05:34:51;;;;;;;12.10;6.18;;;10.30;99.90;;;;;;5080667;28;20050;-64
2024/02/21 05:37:37;;;;;;;10.23;5.75;;;10.30;99.90;;;;;;5072449;28;20554;-64
2024/02/21 05:40:23;;;;;;;17.35;6.50;;;10.30;99.90;;;;;;5069740;28;20048;-64
2024/02/21 05:43:09;;;;;;;13.70;5.75;;;10.30;99.90;;;;;;5082596;28;20485;-64
2024/02/21 05:45:55;;;;;;;11.68;6.10;;;10.30;99.90;;;;;;5068133;28;20044;-65
2024/02/21 05:48:41;;;;;;;11.02;5.35;;;10.30;99.90;;;;;;5071560;28;20050;-64
2024/02/21 05:51:27;;;;;;;13.40;5.55;;;10.30;99.90;;;;;;5072551;28;20032;-64
2024/02/21 05:54:13;;;;;;;15.32;5.80;;;10.30;99.90;;;;;;5088022;28;20123;-64
2024/02/21 05:56:59;;;;;;;12.23;6.60;;;10.30;99.90;;;;;;5082424;28;20041;-64
2024/02/21 05:59:45;;;;;;;11.85;5.28;;;10.30;99.90;;;;;;5076732;28;20044;-64
2024/02/21 06:02:31;;;;;;;8.63;5.43;;;10.30;99.90;;;;;;5087622;28;20055;-63
2024/02/21 06:05:17;;;;;;;11.70;5.65;;;10.30;99.90;;;;;;5078305;28;20047;-64
2024/02/21 06:08:03;;;;;;;13.05;6.25;;;10.30;99.90;;;;;;5085141;28;20424;-63
2024/02/21 06:10:51;;;;;;;12.93;6.15;;;10.30;99.90;;;;;;5077584;28;20036;-63
2024/02/21 06:13:40;;;;;;;12.65;5.57;;;10.30;99.90;;;;;;5078149;28;20083;-63
2024/02/21 06:16:26;;;;;;;12.82;5.72;;;10.30;99.90;;;;;;5085686;28;20091;-63
2024/02/21 06:19:12;;;;;;;18.33;6.35;;;10.30;99.90;;;;;;5081313;28;20056;-63
2024/02/21 06:21:58;;;;;;;10.77;5.45;;;10.30;99.90;;;;;;5088504;28;20063;-62
2024/02/21 06:24:44;;;;;;;15.55;7.38;;;10.30;99.90;;;;;;5084674;28;20476;-62
2024/02/21 06:27:30;;;;;;;11.88;6.05;;;10.30;99.90;;;;;;5082084;28;20072;-62
2024/02/21 06:30:16;;;;;;;9.77;5.97;;;10.30;99.90;;;;;;5079331;28;20661;-63
2024/02/21 06:33:02;;;;;;;12.95;6.35;;;10.30;99.90;;;;;;5077448;28;20119;-63
2024/02/21 06:35:48;;;;;;;13.77;5.82;;;10.30;99.90;;;;;;5079443;28;20543;-62
2024/02/21 06:38:34;;;;;;;11.57;6.28;;;10.30;99.90;;;;;;5076463;28;20841;-62
2024/02/21 06:41:21;;;;;;;11.98;5.95;;;10.30;99.90;;;;;;5079055;28;20048;-62
2024/02/21 06:44:07;;;;;;;14.52;5.93;;;10.30;99.90;;;;;;5077604;28;20055;-63
2024/02/21 06:46:54;;;;;;;10.07;5.22;;;10.30;99.90;;;;;;5082358;28;20040;-64
2024/02/21 06:49:41;;;;;;;14.35;6.82;;;10.30;99.90;;;;;;5075342;28;20439;-63
2024/02/21 06:52:27;;;;;;;15.73;7.65;;;10.30;99.90;;;;;;5077408;28;20381;-63
2024/02/21 06:55:13;;;;;;;16.30;6.05;;;10.30;99.90;;;;;;5074161;28;20106;-62
2024/02/21 06:57:59;;;;;;;8.05;5.70;;;10.30;99.90;;;;;;5076839;28;20044;-62
2024/02/21 07:00:45;;;;;;;14.63;5.88;;;10.30;99.90;;;;;;5081901;28;20040;-63
2024/02/21 07:03:31;;;;;;;14.93;6.07;;;10.30;99.90;;;;;;5079216;28;20455;-63
2024/02/21 07:06:17;;;;;;;10.77;5.50;;;10.30;99.90;;;;;;5074018;28;20510;-62
2024/02/21 07:09:03;;;;;;;12.40;6.43;;;10.40;99.90;;;;;;5082260;28;20032;-61
2024/02/21 07:11:49;;;;;;;12.70;5.97;;;10.40;99.90;;;;;;5078051;28;20044;-61
2024/02/21 07:14:36;;;;;;;13.05;5.88;;;10.40;99.90;;;;;;5072074;28;20037;-61
2024/02/21 07:17:22;;;;;;;12.85;6.20;;;10.40;99.90;;;;;;5084743;28;20049;-62
2024/02/21 07:20:08;;;;;;;11.48;5.97;;;10.40;99.90;;;;;;5083997;28;20059;-62
2024/02/21 07:22:54;;;;;;;12.88;6.30;;;10.40;99.90;;;;;;5078687;28;20094;-61
2024/02/21 07:25:40;;;;;;;11.55;6.55;;;10.40;99.90;;;;;;5075316;28;20063;-62
2024/02/21 07:28:26;;;;;;;14.30;6.13;;;10.40;99.90;;;;;;5078687;28;20488;-62
2024/02/21 07:31:12;;;;;;;12.90;6.50;;;10.50;99.90;;;;;;5081290;28;20660;-63
2024/02/21 07:33:58;;;;;;;12.45;5.68;;;10.50;99.90;;;;;;5068981;28;20041;-66
2024/02/21 07:36:45;;;;;;;11.57;6.07;;;10.50;99.90;;;;;;5073313;28;20116;-65
2024/02/21 07:39:31;;;;;;;12.15;5.30;;;10.50;99.90;;;;;;5076735;28;20405;-65
2024/02/21 07:42:17;;;;;;;13.65;6.47;;;10.50;99.90;;;;;;5077196;28;20059;-64
2024/02/21 07:45:03;;;;;;;11.18;5.85;;;10.50;99.90;;;;;;5077840;28;20467;-68
2024/02/21 07:47:50;;;;;;;13.77;6.60;;;10.50;99.90;;;;;;5080111;28;20961;-65
2024/02/21 07:50:36;;;;;;;13.52;5.82;;;10.50;99.90;;;;;;5076853;28;20043;-66
2024/02/21 07:53:21;;;;;;;8.70;5.05;;;10.60;99.90;;;;;;5083894;28;20480;-65
2024/02/21 07:56:07;;;;;;;13.98;5.53;;;10.50;99.90;;;;;;5076309;28;20047;-68
2024/02/21 07:58:53;;;;;;;10.88;5.57;;;10.50;99.90;;;;;;5078799;28;20075;-67
2024/02/21 08:01:40;;;;;;;10.38;5.82;;;10.50;99.90;;;;;;5080824;28;20036;-67
2024/02/21 08:04:26;;;;;;;15.15;6.93;;;10.60;99.90;;;;;;5075260;28;20067;-68
2024/02/21 08:07:11;;;;;;;10.43;5.70;;;10.60;99.90;;;;;;5084026;28;20070;-69
2024/02/21 08:09:57;;;;;;;10.70;5.78;;;10.60;99.90;;;;;;5076913;28;20090;-66
2024/02/21 08:12:43;;;;;;;13.60;6.47;;;10.70;99.90;;;;;;5067020;28;20043;-66
2024/02/21 08:15:29;;;;;;;10.40;5.68;;;10.70;99.90;;;;;;5080763;28;20043;-66
2024/02/21 08:18:15;;;;;;;15.77;6.93;;;10.70;99.90;;;;;;5072630;28;20052;-66
2024/02/21 08:21:01;;;;;;;11.73;6.32;;;10.80;99.90;;;;;;5079162;28;20076;-66
2024/02/21 08:23:51;;;;;;;12.73;6.13;;;10.80;99.90;;;;;;5076410;28;20085;-66
2024/02/21 08:26:41;;;;;;;13.88;6.00;;;10.80;99.90;;;;;;5073623;28;20043;-65
2024/02/21 08:29:26;;;;;;;11.30;5.68;;;10.90;99.90;;;;;;5084100;28;20423;-66
2024/02/21 08:32:12;;;;;;;13.40;5.85;;;10.90;99.90;;;;;;5079571;28;20040;-66
2024/02/21 08:34:58;;;;;;;15.50;7.35;;;10.90;99.90;;;;;;5076292;28;20032;-66
2024/02/21 08:37:47;;;;;;;11.70;6.35;;;10.90;99.90;;;;;;5077335;28;20047;-66
2024/02/21 08:40:35;;;;;;;12.32;6.80;;;11.00;99.90;;;;;;5076274;28;20044;-66
2024/02/21 08:43:20;;;;;;;15.27;6.70;;;11.10;99.90;;;;;;5081172;28;20070;-66
2024/02/21 08:46:06;;;;;;;11.00;5.88;;;11.10;99.90;;;;;;5076902;28;20115;-66
2024/02/21 08:48:53;;;;;;;13.63;6.72;;;11.10;99.90;;;;;;5078292;28;20039;-65
2024/02/21 08:51:39;;;;;;;14.30;6.32;;;11.20;99.90;;;;;;5085815;28;20031;-66
2024/02/21 08:54:25;;;;;;;18.13;7.63;;;11.20;99.90;;;;;;5080821;28;20097;-65
2024/02/21 08:57:13;;;;;;;12.90;6.55;;;11.30;99.90;;;;;;5081826;28;20032;-65
2024/02/21 08:59:59;;;;;;;16.02;7.57;;;11.30;99.90;;;;;;5076498;28;20049;-66
2024/02/21 09:02:45;;;;;;;12.73;6.30;;;11.40;99.90;;;;;;5083182;28;20402;-66
2024/02/21 09:05:31;;;;;;;15.00;6.75;;;11.40;99.90;;;;;;5071052;28;20041;-65
2024/02/21 09:08:18;;;;;;;12.98;8.05;;;11.50;99.90;;;;;;5087983;28;20083;-65
2024/02/21 09:11:06;;;;;;;14.43;7.47;;;11.50;99.90;;;;;;5074662;28;20098;-65
2024/02/21 09:13:52;;;;;;;11.73;7.07;;;11.60;99.90;;;;;;5077238;28;20045;-65
2024/02/21 09:16:38;;;;;;;13.77;7.13;;;11.60;99.90;;;;;;5059375;28;20036;-65
2024/02/21 09:19:24;;;;;;;13.10;7.03;;;11.60;99.90;;;;;;5080956;28;20097;-64
2024/02/21 09:22:10;;;;;;;13.32;7.10;;;11.70;99.90;;;;;;5069879;28;20055;-65
2024/02/21 09:24:55;;;;;;;14.55;7.47;;;11.70;99.90;;;;;;5084906;28;20032;-66
2024/02/21 09:27:45;;;;;;;15.60;8.05;;;11.80;99.90;;;;;;5084480;28;20078;-66
2024/02/21 09:30:30;;;;;;;15.02;7.63;;;11.80;99.90;;;;;;5076530;28;20048;-65
2024/02/21 09:33:16;;;;;;;12.20;7.07;;;11.80;99.90;;;;;;5088139;28;20544;-66
2024/02/21 09:36:05;;;;;;;12.23;7.43;;;11.90;99.90;;;;;;5075286;28;20124;-65
2024/02/21 09:38:51;;;;;;;12.10;7.13;;;12.00;99.90;;;;;;5080086;28;20044;-66
2024/02/21 09:41:45;;;;;;;13.07;7.38;;;12.00;99.90;;;;;;5079074;28;20147;-66
2024/02/21 09:44:37;;;;;;;15.05;7.93;;;12.10;99.90;;;;;;5084772;28;20040;-66
2024/02/21 09:47:41;;;;;;;15.15;7.10;;;12.10;99.90;;;;;;5076512;28;20093;-66
2024/02/21 09:50:28;;;;;;;14.50;7.07;;;12.20;99.90;;;;;;5081581;28;20131;-65
2024/02/21 09:53:14;;;;;;;12.80;7.32;;;12.20;99.90;;;;;;5079268;28;20045;-66
2024/02/21 09:56:01;;;;;;;17.75;7.80;;;12.30;99.90;;;;;;5080301;28;20044;-66
2024/02/21 09:58:47;;;;;;;14.05;8.00;;;12.40;99.90;;;;;;5075755;28;20143;-66
2024/02/21 10:01:33;;;;;;;19.75;7.10;;;12.40;99.90;;;;;;5075004;28;20063;-66
2024/02/21 10:04:20;;;;;;;12.48;6.97;;;12.50;99.90;;;;;;5084721;28;20048;-66
2024/02/21 10:07:07;;;;;;;17.05;8.23;;;12.60;99.90;;;;;;5075173;28;20054;-66
2024/02/21 10:10:03;;;;;;;10.10;6.18;;;12.60;99.90;;;;;;5076608;28;20537;-66
2024/02/21 10:12:50;;;;;;;8.38;5.85;;;12.60;99.90;;;;;;5082354;28;20407;-65
2024/02/21 10:15:36;;;;;;;10.90;6.95;;;12.70;99.90;;;;;;5081572;28;20409;-65
2024/02/21 10:18:22;;;;;;;15.75;7.22;;;12.70;99.90;;;;;;5076338;28;20048;-66
2024/02/21 10:21:08;;;;;;;17.00;7.40;;;12.70;99.90;;;;;;5090396;28;20385;-62
2024/02/21 10:23:54;;;;;;;10.65;6.55;;;12.70;99.90;;;;;;5081708;28;20040;-62
2024/02/21 10:26:40;;;;;;;13.45;6.85;;;12.70;99.90;;;;;;5084610;28;20052;-62
2024/02/21 10:29:26;;;;;;;11.27;6.43;;;12.80;99.90;;;;;;5080110;28;20032;-62
2024/02/21 10:32:13;;;;;;;13.57;6.55;;;12.80;99.90;;;;;;5081453;28;20042;-62
2024/02/21 10:35:06;;;;;;;13.40;7.15;;;12.90;99.90;;;;;;5083037;28;20048;-62
2024/02/21 10:37:55;;;;;;;11.00;6.35;;;12.80;99.90;;;;;;5085369;28;20117;-62
2024/02/21 10:40:41;;;;;;;12.32;6.82;;;12.80;99.90;;;;;;5073591;28;20040;-62
2024/02/21 10:43:29;;;;;;;11.68;6.40;;;12.90;99.90;;;;;;5084301;28;20091;-62
2024/02/21 10:46:21;;;;;;;9.00;6.00;;;13.00;99.90;;;;;;5074844;28;20396;-62
2024/02/21 10:49:12;;;;;;;12.55;6.97;;;12.90;99.90;;;;;;5078129;28;20175;-62
2024/02/21 10:52:15;;;;;;;9.77;6.70;;;13.00;99.90;;;;;;5082281;28;20175;-62
2024/02/21 10:55:09;;;;;;;14.52;6.50;;;13.00;99.90;;;;;;5088237;28;20040;-62
2024/02/21 10:57:57;;;;;;;7.78;5.32;;;13.00;99.90;;;;;;5078715;28;20467;-62
2024/02/21 11:00:43;;;;;;;9.82;6.25;;;13.10;99.90;;;;;;5077088;28;20041;-63
2024/02/21 11:03:30;;;;;;;13.55;6.20;;;13.10;99.90;;;;;;5088996;28;20429;-62
2024/02/21 11:06:17;;;;;;;11.27;6.90;;;13.10;99.90;;;;;;5076033;28;20064;-62
2024/02/21 11:09:08;;;;;;;8.68;5.45;;;13.10;99.90;;;;;;5079823;28;20060;-63
2024/02/21 11:11:55;;;;;;;9.45;5.35;;;13.10;99.90;;;;;;5074998;28;20524;-62
2024/02/21 11:14:42;;;;;;;8.73;5.90;;;13.10;99.90;;;;;;5078782;28;20070;-62
2024/02/21 11:17:28;;;;;;;10.48;5.75;;;13.20;99.90;;;;;;5092181;28;20040;-62
2024/02/21 11:20:15;;;;;;;10.52;5.95;;;13.20;99.90;;;;;;5072506;28;20056;-62
2024/02/21 11:23:01;;;;;;;9.27;5.65;;;13.20;99.90;;;;;;5080533;28;20399;-62
2024/02/21 11:25:47;;;;;;;8.52;5.45;;;13.30;99.90;;;;;;5075172;28;20127;-62
2024/02/21 11:28:33;;;;;;;9.25;5.57;;;13.30;99.90;;;;;;5077979;28;20036;-62
2024/02/21 11:31:19;;;;;;;9.93;5.60;;;13.30;99.90;;;;;;5079427;28;20505;-62
2024/02/21 11:34:05;;;;;;;8.85;5.68;;;13.40;99.90;;;;;;5086253;28;20091;-61
2024/02/21 11:36:52;;;;;;;7.93;5.75;;;13.40;99.90;;;;;;5072819;28;20055;-62
2024/02/21 11:39:39;;;;;;;8.30;5.15;;;13.50;99.90;;;;;;5076911;28;20484;-62
2024/02/21 11:42:29;;;;;;;10.15;4.95;;;13.50;99.90;;;;;;5075782;28;20037;-61
2024/02/21 11:45:16;;;;;;;6.22;4.47;;;13.50;99.90;;;;;;5078618;28;20407;-61
2024/02/21 11:48:03;;;;;;;10.32;4.80;;;13.60;99.90;;;;;;5068331;28;20063;-62
2024/02/21 11:50:54;;;;;;;9.38;5.05;;;13.60;99.60;;;;;;5067400;28;20040;-61
2024/02/21 11:53:40;;;;;;;7.18;4.68;;;13.60;99.50;;;;;;5078632;28;20040;-62
2024/02/21 11:56:26;;;;;;;6.95;4.38;;;13.60;99.40;;;;;;5076855;28;20458;-62
2024/02/21 11:59:12;;;;;;;9.52;5.10;;;13.70;99.30;;;;;;5087085;28;20411;-61
2024/02/21 12:02:00;;;;;;;7.05;4.10;;;13.70;99.20;;;;;;5072736;28;20816;-61
2024/02/21 12:04:47;;;;;;;7.90;4.65;;;13.70;99.10;;;;;;5078706;28;20068;-62
2024/02/21 12:07:33;;;;;;;8.55;4.43;;;13.70;99.10;;;;;;5077273;28;20062;-62
2024/02/21 12:10:20;;;;;;;9.32;4.28;;;13.70;99.00;;;;;;5079970;28;20488;-61
2024/02/21 12:13:09;;;;;;;6.43;4.00;;;13.70;98.90;;;;;;5072367;28;20052;-61
2024/02/21 12:15:55;;;;;;;6.07;4.25;;;13.70;98.90;;;;;;5063315;28;20393;-62
2024/02/21 12:18:41;;;;;;;10.38;5.03;;;13.80;99.00;;;;;;5073748;28;20060;-62
2024/02/21 12:21:32;;;;;;;7.63;4.13;;;13.80;98.80;;;;;;5078764;28;20045;-63
2024/02/21 12:24:22;;;;;;;8.18;4.10;;;13.90;98.70;;;;;;5071959;28;20098;-63
2024/02/21 12:27:08;;;;;;;5.68;4.00;;;13.90;98.70;;;;;;5077110;28;20438;-63
2024/02/21 12:29:54;;;;;;;7.10;3.88;;;14.00;98.70;;;;;;5078783;28;20045;-62
2024/02/21 12:32:41;;;;;;;6.82;3.95;;;14.10;98.60;;;;;;5074844;28;20041;-62
2024/02/21 12:35:27;;;;;;;9.68;3.45;;;14.10;98.50;;;;;;5079353;28;20045;-62
2024/02/21 12:38:13;;;;;;;7.25;4.05;;;14.20;98.50;;;;;;5077845;28;20068;-62
2024/02/21 12:41:00;;;;;;;7.82;3.50;;;14.20;98.40;;;;;;5079834;28;20040;-69
2024/02/21 12:43:47;;;;;;;5.47;3.63;;;14.20;98.30;;;;;;5076131;28;20121;-69
2024/02/21 12:46:33;;;;;;;5.07;3.63;;;14.20;98.20;;;;;;5078073;28;20374;-69
2024/02/21 12:49:19;;;;;;;7.53;3.75;;;14.20;98.10;;;;;;5075408;28;20051;-69
2024/02/21 12:52:05;;;;;;;5.30;3.65;;;14.20;98.10;;;;;;5080498;28;20101;-69
2024/02/21 12:54:51;;;;;;;9.20;3.17;;;14.20;98.00;;;;;;5075262;28;20044;-70
2024/02/21 15:13:03;;;;;;;6.75;4.35;;;14.10;96.30;;;;;;6372555;22;20449;-75
2024/02/21 15:15:51;;;;;;;8.32;4.18;;;14.10;96.30;;;;;;6370184;22;20089;-77
2024/02/21 15:18:38;;;;;;;8.95;4.55;;;14.10;96.30;;;;;;6341226;22;20060;-76
2024/02/21 15:21:24;;;;;;;13.25;5.22;;;14.10;96.30;;;;;;6365040;22;20026;-76
2024/02/21 15:45:45;;;;;;;10.20;5.20;;;14.30;95.30;;;;;;6189991;23;20021;-69
2024/02/21 15:48:34;;;;;;;7.22;3.60;;;14.10;95.40;;;;;;6191183;23;20027;-68
2024/02/21 15:51:22;;;;;;;9.90;4.47;;;14.00;95.50;;;;;;6190521;23;20001;-68
2024/02/21 15:54:08;;;;;;;7.15;3.55;;;13.80;95.60;;;;;;6192354;23;20011;-70
2024/02/21 15:56:56;;;;;;;8.40;4.32;;;13.70;95.60;;;;;;6187135;23;20009;-72
2024/02/21 15:59:42;;;;;;;8.23;4.53;;;13.60;95.70;;;;;;6187817;23;20437;-70
2024/02/21 16:02:27;;;;;;;9.52;4.32;;;13.50;95.80;;;;;;6187999;23;20356;-70
2024/02/21 16:05:13;;;;;;;8.60;4.28;;;13.40;95.90;;;;;;6189578;23;20040;-71
2024/02/21 16:08:00;;;;;;;8.30;3.95;;;13.30;96.00;;;;;;6190481;23;20055;-70
2024/02/21 16:10:46;;;;;;;8.57;4.40;;;13.20;96.00;;;;;;6189230;23;20011;-70
2024/02/21 16:13:32;;;;;;;7.53;4.18;;;13.20;96.10;;;;;;6190786;23;20009;-70
2024/02/21 16:16:18;;;;;;;11.27;5.55;;;13.10;96.10;;;;;;6188507;23;20402;-71
2024/02/21 16:19:05;;;;;;;10.02;4.68;;;13.00;96.10;;;;;;6188225;23;20085;-69
2024/02/21 16:21:51;;;;;;;9.75;4.85;;;13.00;96.20;;;;;;6191432;23;20072;-70
2024/02/21 16:24:36;;;;;;;11.07;4.70;;;12.90;96.20;;;;;;6190011;23;20071;-71
2024/02/21 16:27:22;;;;;;;8.10;4.38;;;12.70;96.30;;;;;;6189173;23;20005;-72
2024/02/21 16:30:09;;;;;;;10.15;5.43;;;12.70;96.40;;;;;;6187211;23;20000;-68
2024/02/21 16:32:55;;;;;;;8.73;5.07;;;12.60;96.40;;;;;;6189764;23;20011;-69
2024/02/21 16:35:41;;;;;;;10.25;5.10;;;12.50;96.40;;;;;;6190883;23;20008;-69
2024/02/21 16:38:28;;;;;;;9.05;5.05;;;12.40;96.50;;;;;;6189645;23;20005;-68
2024/02/21 16:41:13;;;;;;;7.78;4.78;;;12.40;96.60;;;;;;6188843;23;20448;-69
2024/02/21 16:43:59;;;;;;;12.05;5.80;;;12.20;96.60;;;;;;6183754;23;20337;-71
2024/02/21 16:46:46;;;;;;;8.95;5.88;;;12.20;96.60;;;;;;6183793;23;20087;-61
2024/02/21 16:49:31;;;;;;;9.93;5.35;;;12.10;96.70;;;;;;6182658;23;20011;-63
2024/02/21 16:52:18;;;;;;;8.20;5.03;;;12.10;96.80;;;;;;6182013;23;20269;-63
2024/02/21 16:55:05;;;;;;;11.55;5.22;;;12.10;96.80;;;;;;6181255;23;20001;-64
2024/02/21 16:57:51;;;;;;;12.48;5.53;;;11.90;96.90;;;;;;6183323;23;20009;-62